createdAt,value
2022-10-19T00:07:28.701Z,942
2022-10-19T00:23:23.038Z,942.1
2022-10-19T00:28:39.659Z,942.1
2022-10-19T00:33:52.347Z,942.3
2022-10-19T00:44:27.614Z,942.1
2022-10-19T00:49:46.754Z,942.1
2022-10-19T00:54:58.649Z,942
2022-10-19T01:00:09.743Z,941.8
2022-10-19T01:05:21.172Z,942
2022-10-19T01:10:31.225Z,941.7
2022-10-19T01:21:05.116Z,942.1
2022-10-19T01:26:16.142Z,943
2022-10-19T01:31:28.153Z,942.2
2022-10-19T01:36:39.145Z,942.4
2022-10-19T01:41:51.884Z,942.4
2022-10-19T01:47:04.583Z,944
2022-10-19T01:52:23.508Z,944
2022-10-19T01:57:34.415Z,944.4
2022-10-19T02:02:46.434Z,943.7
2022-10-19T02:07:57.480Z,945
2022-10-19T02:13:10.088Z,945.1
2022-10-19T02:18:23.963Z,945.1
2022-10-19T02:23:35.102Z,941.4
2022-10-19T02:28:47.327Z,941.4
2022-10-19T02:39:20.086Z,940.9
2022-10-19T02:44:31.570Z,941.1
2022-10-19T02:49:43.996Z,941.5
2022-10-19T02:54:55.357Z,942
2022-10-19T03:00:11.675Z,942
2022-10-19T03:05:21.252Z,941
2022-10-19T03:26:38.126Z,941
2022-10-19T03:42:31.227Z,941.4
2022-10-19T03:47:43.090Z,941.2
2022-10-19T03:52:56.295Z,940.9
2022-10-19T03:58:09.631Z,940.9
2022-10-19T04:03:21.984Z,940.9
2022-10-19T04:08:32.911Z,941
2022-10-19T04:13:42.785Z,941.2
2022-10-19T04:18:52.940Z,941.5
2022-10-19T04:24:05.162Z,941.7
2022-10-19T04:29:16.931Z,941.1
2022-10-19T04:34:26.937Z,941.2
2022-10-19T04:39:39.715Z,940.9
2022-10-19T04:50:13.387Z,940.8
2022-10-19T04:55:30.275Z,940.8
2022-10-19T05:00:48.596Z,940.8
2022-10-19T05:05:57.624Z,940.6
2022-10-19T05:11:10.232Z,940.9
2022-10-19T05:16:22.026Z,941.1
2022-10-19T05:21:39.371Z,941.1
2022-10-19T05:26:50.349Z,943.3
2022-10-19T05:32:02.931Z,943.3
2022-10-19T05:37:15.654Z,944.2
2022-10-19T05:42:27.328Z,942.9
2022-10-19T05:47:38.142Z,942.6
2022-10-19T05:52:52.283Z,942.6
2022-10-19T06:03:26.981Z,941.1
2022-10-19T06:08:39.117Z,940.4
2022-10-19T06:13:49.503Z,940.3
2022-10-19T06:19:02.037Z,940.5
2022-10-19T06:24:11.399Z,940.4
2022-10-19T06:29:27.852Z,940.4
2022-10-19T06:34:38.532Z,940.6
2022-10-19T06:39:49.467Z,941
2022-10-19T06:50:24.611Z,941.2
2022-10-19T07:00:58.861Z,941.1
2022-10-19T07:06:14.574Z,941.1
2022-10-19T07:11:27.426Z,941.2
2022-10-19T07:16:38.666Z,941.4
2022-10-19T07:21:49.103Z,941.2
2022-10-19T07:27:01.467Z,941.7
2022-10-19T07:32:16.392Z,941.7
2022-10-19T07:37:27.745Z,941.3
2022-10-19T07:42:45.115Z,941.3
2022-10-19T07:47:56.221Z,941.1
2022-10-19T07:53:08.804Z,942
2022-10-19T07:58:20.104Z,942.3
2022-10-19T08:05:12.371Z,941.6
2022-10-19T08:08:46.633Z,941.2
2022-10-19T08:19:23.913Z,941.2
2022-10-19T08:29:58.140Z,941.1
2022-10-19T08:35:13.336Z,941.1
2022-10-19T08:40:26.337Z,941
2022-10-19T08:51:03.957Z,941
2022-10-19T09:01:38.633Z,941
2022-10-19T09:12:13.012Z,940.9
2022-10-19T09:38:50.964Z,940.4
2022-10-19T09:44:05.267Z,940.4
2022-10-19T10:05:26.754Z,940
2022-10-19T10:10:51.819Z,940
2022-10-19T10:26:42.085Z,939.8
2022-10-19T10:31:55.403Z,939.8
2022-10-19T10:37:11.601Z,939.6
2022-10-19T10:53:27.294Z,939.5
2022-10-19T11:03:58.039Z,939.4
2022-10-19T11:09:11.841Z,939.3
2022-10-19T11:25:07.394Z,939.3
2022-10-19T11:30:15.917Z,939.1
2022-10-19T11:41:19.729Z,938.9
2022-10-19T12:02:19.623Z,938.7
2022-10-19T12:12:51.726Z,938.8
2022-10-19T12:18:06.453Z,938.6
2022-10-19T12:34:10.087Z,938.4
2022-10-19T12:44:59.252Z,938.2
2022-10-19T12:50:01.338Z,938.3
2022-10-19T13:00:32.514Z,938.2
2022-10-19T13:05:44.712Z,938.3
2022-10-19T13:10:57.976Z,938.1
2022-10-19T13:32:11.916Z,938.1
2022-10-19T13:37:21.730Z,938
2022-10-19T13:42:35.397Z,938.1
2022-10-19T14:03:50.523Z,938
2022-10-19T14:09:04.420Z,937.9
2022-10-19T14:25:05.111Z,937.9
2022-10-19T14:30:15.522Z,938
2022-10-19T14:51:30.233Z,937.9
2022-10-19T14:56:40.972Z,937.7
2022-10-19T15:01:56.920Z,937.7
2022-10-19T15:07:13.612Z,937.7
2022-10-19T15:17:47.888Z,937.6
2022-10-19T15:55:03.826Z,937.5
2022-10-19T16:00:15.952Z,937.7
2022-10-19T16:05:28.819Z,937.6
2022-10-19T16:26:45.463Z,937.6
2022-10-19T16:37:23.197Z,937.6
2022-10-19T16:48:00.039Z,937.6
2022-10-19T16:58:34.225Z,937.7
2022-10-19T17:14:29.983Z,938.2
2022-10-19T17:19:47.817Z,938.2
2022-10-19T17:25:10.858Z,938.2
2022-10-19T17:35:43.356Z,938.2
2022-10-19T17:46:19.776Z,938.2
2022-10-19T17:56:54.572Z,938.2
2022-10-19T18:02:14.856Z,938
2022-10-19T18:18:11.296Z,938
2022-10-19T18:23:22.099Z,937.8
2022-10-19T18:34:23.605Z,937.8
2022-10-19T18:39:43.023Z,937.7
2022-10-19T18:45:00.112Z,937.7
2022-10-19T18:55:33.679Z,937.7
2022-10-19T19:00:53.266Z,937.7
2022-10-19T19:06:37.642Z,937.7
2022-10-19T19:17:08.664Z,937.6
2022-10-19T19:38:24.844Z,937.4
2022-10-19T19:43:37.137Z,937.3
2022-10-19T19:54:08.909Z,937.6
2022-10-19T19:59:20.126Z,937.4
2022-10-19T20:04:32.419Z,937.2
2022-10-19T20:15:05.832Z,937.7
2022-10-19T20:20:17.426Z,937.5
2022-10-19T20:25:29.596Z,937.8
2022-10-19T20:30:42.124Z,938
2022-10-19T20:35:51.459Z,938.8
2022-10-19T20:41:11.199Z,939.3
2022-10-19T20:46:16.815Z,939.7
2022-10-19T20:51:33.215Z,939.5
2022-10-19T21:02:02.464Z,938.5
2022-10-19T21:07:14.806Z,937.9
2022-10-19T21:12:31.530Z,937.9
2022-10-19T21:17:41.753Z,939.2
2022-10-19T21:22:53.552Z,940.2
2022-10-19T21:28:05.645Z,940
2022-10-19T21:33:18.950Z,939.7
2022-10-19T21:38:30.323Z,939.2
2022-10-19T21:43:41.393Z,938.8
2022-10-19T21:54:26.294Z,938.8
2022-10-19T21:59:36.876Z,940
2022-10-19T22:04:48.470Z,938.8
2022-10-19T22:10:01.635Z,938.8
2022-10-19T22:15:12.029Z,938.4
2022-10-19T22:20:26.132Z,938.3
2022-10-19T22:25:43.766Z,938.3
2022-10-19T22:31:00.126Z,939
2022-10-19T22:36:11.402Z,938.8
2022-10-19T22:41:21.703Z,938
2022-10-19T22:46:32.665Z,938.4
2022-10-19T22:51:45.720Z,938.4
2022-10-19T22:56:55.187Z,939.1
2022-10-19T23:07:27.774Z,939.2
2022-10-19T23:12:39.762Z,939.6
2022-10-19T23:17:51.106Z,940.1
2022-10-19T23:23:07.733Z,940.1
2022-10-19T23:28:20.004Z,939.6
2022-10-19T23:33:37.410Z,939.6
2022-10-19T23:38:50.236Z,939.3
2022-10-19T23:49:22.991Z,939.3
2022-10-19T23:59:56.469Z,938.9
